sensor_id;sensor_type;location;lat;lon;timestamp;temperature;humidity
8563;DHT22;16392;52.508;13.468;2023-04-01T00:00:46;9.50;99.90
8563;DHT22;16392;52.508;13.468;2023-04-01T00:03:12;9.50;99.90
8563;DHT22;16392;52.508;13.468;2023-04-01T00:05:40;9.50;99.90
8563;DHT22;16392;52.508;13.468;2023-04-01T00:08:07;9.60;99.90
8563;DHT22;16392;52.508;13.468;2023-04-01T00:10:33;9.50;99.90
8563;DHT22;16392;52.508;13.468;2023-04-01T00:13:00;9.60;99.90
8563;DHT22;16392;52.508;13.468;2023-04-01T00:15:26;9.50;99.90
8563;DHT22;16392;52.508;13.468;2023-04-01T00:17:53;9.60;99.90
8563;DHT22;16392;52.508;13.468;2023-04-01T00:20:20;9.50;99.90
8563;DHT22;16392;52.508;13.468;2023-04-01T00:22:48;9.60;99.90
8563;DHT22;16392;52.508;13.468;2023-04-01T00:25:15;9.50;99.90
8563;DHT22;16392;52.508;13.468;2023-04-01T00:27:41;9.60;99.90
8563;DHT22;16392;52.508;13.468;2023-04-01T00:30:08;9.50;99.90
8563;DHT22;16392;52.508;13.468;2023-04-01T00:32:35;9.60;99.90
8563;DHT22;16392;52.508;13.468;2023-04-01T00:35:01;9.60;99.90
8563;DHT22;16392;52.508;13.468;2023-04-01T00:37:28;9.50;99.90
8563;DHT22;16392;52.508;13.468;2023-04-01T00:39:56;9.60;99.90
8563;DHT22;16392;52.508;13.468;2023-04-01T00:42:23;9.60;99.90
8563;DHT22;16392;52.508;13.468;2023-04-01T00:44:51;9.60;99.90
8563;DHT22;16392;52.508;13.468;2023-04-01T00:47:18;9.60;99.90
8563;DHT22;16392;52.508;13.468;2023-04-01T00:49:45;9.50;99.90
8563;DHT22;16392;52.508;13.468;2023-04-01T00:52:14;9.60;99.90
8563;DHT22;16392;52.508;13.468;2023-04-01T00:54:42;9.60;99.90
8563;DHT22;16392;52.508;13.468;2023-04-01T00:57:15;9.60;99.90
8563;DHT22;16392;52.508;13.468;2023-04-01T00:59:43;9.70;99.90
8563;DHT22;16392;52.508;13.468;2023-04-01T01:02:10;9.70;99.90
8563;DHT22;16392;52.508;13.468;2023-04-01T01:04:37;9.70;99.90
8563;DHT22;16392;52.508;13.468;2023-04-01T01:07:07;9.70;99.90
8563;DHT22;16392;52.508;13.468;2023-04-01T01:09:39;9.70;99.90
8563;DHT22;16392;52.508;13.468;2023-04-01T01:12:10;9.70;99.90
8563;DHT22;16392;52.508;13.468;2023-04-01T01:14:42;9.70;99.90
8563;DHT22;16392;52.508;13.468;2023-04-01T01:17:13;9.70;99.90
8563;DHT22;16392;52.508;13.468;2023-04-01T01:22:27;9.70;99.90
8563;DHT22;16392;52.508;13.468;2023-04-01T01:25:12;9.70;99.90
8563;DHT22;16392;52.508;13.468;2023-04-01T01:27:42;9.70;99.90
8563;DHT22;16392;52.508;13.468;2023-04-01T01:30:17;9.70;99.90
8563;DHT22;16392;52.508;13.468;2023-04-01T01:33:05;9.70;99.90
8563;DHT22;16392;52.508;13.468;2023-04-01T01:35:36;9.70;99.90
8563;DHT22;16392;52.508;13.468;2023-04-01T01:38:03;9.70;99.90
8563;DHT22;16392;52.508;13.468;2023-04-01T01:40:32;9.70;99.90
8563;DHT22;16392;52.508;13.468;2023-04-01T01:42:59;9.70;99.90
8563;DHT22;16392;52.508;13.468;2023-04-01T01:45:26;9.70;99.90
8563;DHT22;16392;52.508;13.468;2023-04-01T01:47:53;9.80;99.90
8563;DHT22;16392;52.508;13.468;2023-04-01T01:50:21;9.80;99.90
8563;DHT22;16392;52.508;13.468;2023-04-01T01:52:49;9.80;99.90
8563;DHT22;16392;52.508;13.468;2023-04-01T01:55:26;9.80;99.90
8563;DHT22;16392;52.508;13.468;2023-04-01T01:57:53;9.80;99.90
8563;DHT22;16392;52.508;13.468;2023-04-01T02:00:21;9.80;99.90
8563;DHT22;16392;52.508;13.468;2023-04-01T02:02:48;9.70;99.90
8563;DHT22;16392;52.508;13.468;2023-04-01T02:05:16;9.70;99.90
8563;DHT22;16392;52.508;13.468;2023-04-01T02:07:44;9.70;99.90
8563;DHT22;16392;52.508;13.468;2023-04-01T02:10:14;9.70;99.90
8563;DHT22;16392;52.508;13.468;2023-04-01T02:12:41;9.70;99.90
8563;DHT22;16392;52.508;13.468;2023-04-01T02:15:09;9.70;99.90
8563;DHT22;16392;52.508;13.468;2023-04-01T02:17:37;9.70;99.90
8563;DHT22;16392;52.508;13.468;2023-04-01T02:20:05;9.70;99.90
8563;DHT22;16392;52.508;13.468;2023-04-01T02:22:34;9.70;99.90
8563;DHT22;16392;52.508;13.468;2023-04-01T02:25:02;9.70;99.90
8563;DHT22;16392;52.508;13.468;2023-04-01T02:27:32;9.70;99.90
8563;DHT22;16392;52.508;13.468;2023-04-01T02:29:58;9.70;99.90
8563;DHT22;16392;52.508;13.468;2023-04-01T02:32:25;9.70;99.90
8563;DHT22;16392;52.508;13.468;2023-04-01T02:34:53;9.70;99.90
8563;DHT22;16392;52.508;13.468;2023-04-01T02:37:20;9.70;99.90
8563;DHT22;16392;52.508;13.468;2023-04-01T02:39:47;9.70;99.90
8563;DHT22;16392;52.508;13.468;2023-04-01T02:42:13;9.70;99.90
8563;DHT22;16392;52.508;13.468;2023-04-01T02:44:41;9.70;99.90
8563;DHT22;16392;52.508;13.468;2023-04-01T02:47:08;9.70;99.90
8563;DHT22;16392;52.508;13.468;2023-04-01T02:49:34;9.70;99.90
8563;DHT22;16392;52.508;13.468;2023-04-01T02:52:01;9.70;99.90
8563;DHT22;16392;52.508;13.468;2023-04-01T02:54:27;9.70;99.90
8563;DHT22;16392;52.508;13.468;2023-04-01T02:56:54;9.70;99.90
8563;DHT22;16392;52.508;13.468;2023-04-01T02:59:20;9.70;99.90
8563;DHT22;16392;52.508;13.468;2023-04-01T03:01:48;9.70;99.90
8563;DHT22;16392;52.508;13.468;2023-04-01T03:04:15;9.70;99.90
8563;DHT22;16392;52.508;13.468;2023-04-01T03:06:41;9.70;99.90
8563;DHT22;16392;52.508;13.468;2023-04-01T03:09:08;9.70;99.90
8563;DHT22;16392;52.508;13.468;2023-04-01T03:11:34;9.70;99.90
8563;DHT22;16392;52.508;13.468;2023-04-01T03:14:00;9.70;99.90
8563;DHT22;16392;52.508;13.468;2023-04-01T03:16:27;9.70;99.90
8563;DHT22;16392;52.508;13.468;2023-04-01T03:18:55;9.70;99.90
8563;DHT22;16392;52.508;13.468;2023-04-01T03:21:24;9.70;99.90
8563;DHT22;16392;52.508;13.468;2023-04-01T03:23:50;9.70;99.90
8563;DHT22;16392;52.508;13.468;2023-04-01T03:26:17;9.70;99.90
8563;DHT22;16392;52.508;13.468;2023-04-01T03:28:44;9.70;99.90
8563;DHT22;16392;52.508;13.468;2023-04-01T03:31:10;9.70;99.90
8563;DHT22;16392;52.508;13.468;2023-04-01T03:33:37;9.70;99.90
8563;DHT22;16392;52.508;13.468;2023-04-01T03:36:05;9.80;99.90
8563;DHT22;16392;52.508;13.468;2023-04-01T03:38:32;9.80;99.90
8563;DHT22;16392;52.508;13.468;2023-04-01T03:40:59;9.80;99.90
8563;DHT22;16392;52.508;13.468;2023-04-01T03:43:25;9.70;99.90
8563;DHT22;16392;52.508;13.468;2023-04-01T03:45:51;9.70;99.90
8563;DHT22;16392;52.508;13.468;2023-04-01T03:48:19;9.70;99.90
8563;DHT22;16392;52.508;13.468;2023-04-01T03:50:46;9.70;99.90
8563;DHT22;16392;52.508;13.468;2023-04-01T03:53:14;9.70;99.90
8563;DHT22;16392;52.508;13.468;2023-04-01T03:55:41;9.70;99.90
8563;DHT22;16392;52.508;13.468;2023-04-01T03:58:08;9.70;99.90
8563;DHT22;16392;52.508;13.468;2023-04-01T04:00:35;9.80;99.90
8563;DHT22;16392;52.508;13.468;2023-04-01T04:03:01;9.80;99.90
8563;DHT22;16392;52.508;13.468;2023-04-01T04:05:28;9.80;99.90
8563;DHT22;16392;52.508;13.468;2023-04-01T04:07:54;9.80;99.90
8563;DHT22;16392;52.508;13.468;2023-04-01T04:10:22;9.70;99.90
8563;DHT22;16392;52.508;13.468;2023-04-01T04:12:50;9.80;99.90
8563;DHT22;16392;52.508;13.468;2023-04-01T04:15:17;9.80;99.90
8563;DHT22;16392;52.508;13.468;2023-04-01T04:17:43;9.80;99.90
8563;DHT22;16392;52.508;13.468;2023-04-01T04:20:10;9.80;99.90
8563;DHT22;16392;52.508;13.468;2023-04-01T04:22:36;9.80;99.90
8563;DHT22;16392;52.508;13.468;2023-04-01T04:25:03;9.80;99.90
8563;DHT22;16392;52.508;13.468;2023-04-01T04:27:31;9.80;99.90
8563;DHT22;16392;52.508;13.468;2023-04-01T04:29:57;9.80;99.90
8563;DHT22;16392;52.508;13.468;2023-04-01T04:32:24;9.80;99.90
8563;DHT22;16392;52.508;13.468;2023-04-01T04:34:50;9.80;99.90
8563;DHT22;16392;52.508;13.468;2023-04-01T04:37:17;9.80;99.90
8563;DHT22;16392;52.508;13.468;2023-04-01T04:39:43;9.90;99.90
8563;DHT22;16392;52.508;13.468;2023-04-01T04:42:10;9.90;99.90
8563;DHT22;16392;52.508;13.468;2023-04-01T04:44:37;9.90;99.90
8563;DHT22;16392;52.508;13.468;2023-04-01T04:47:04;9.90;99.90
8563;DHT22;16392;52.508;13.468;2023-04-01T04:49:31;9.90;99.90
8563;DHT22;16392;52.508;13.468;2023-04-01T04:51:57;9.90;99.90
8563;DHT22;16392;52.508;13.468;2023-04-01T04:54:24;9.90;99.90
8563;DHT22;16392;52.508;13.468;2023-04-01T04:56:51;9.90;99.90
8563;DHT22;16392;52.508;13.468;2023-04-01T04:59:17;9.90;99.90
8563;DHT22;16392;52.508;13.468;2023-04-01T05:01:45;9.90;99.90
8563;DHT22;16392;52.508;13.468;2023-04-01T05:04:12;9.90;99.90
8563;DHT22;16392;52.508;13.468;2023-04-01T05:06:38;9.90;99.90
8563;DHT22;16392;52.508;13.468;2023-04-01T05:09:05;9.90;99.90
8563;DHT22;16392;52.508;13.468;2023-04-01T05:11:31;9.90;99.90
8563;DHT22;16392;52.508;13.468;2023-04-01T05:13:58;9.90;99.90
8563;DHT22;16392;52.508;13.468;2023-04-01T05:16:24;10.00;99.90
8563;DHT22;16392;52.508;13.468;2023-04-01T05:18:52;10.00;99.90
8563;DHT22;16392;52.508;13.468;2023-04-01T05:21:19;10.00;99.90
8563;DHT22;16392;52.508;13.468;2023-04-01T05:23:45;10.00;99.90
8563;DHT22;16392;52.508;13.468;2023-04-01T05:26:12;10.00;99.90
8563;DHT22;16392;52.508;13.468;2023-04-01T05:28:39;10.00;99.90
8563;DHT22;16392;52.508;13.468;2023-04-01T05:31:06;10.00;99.90
8563;DHT22;16392;52.508;13.468;2023-04-01T05:33:33;10.00;99.90
8563;DHT22;16392;52.508;13.468;2023-04-01T05:36:08;10.10;99.90
8563;DHT22;16392;52.508;13.468;2023-04-01T05:38:34;10.10;99.90
8563;DHT22;16392;52.508;13.468;2023-04-01T05:41:02;10.10;99.90
8563;DHT22;16392;52.508;13.468;2023-04-01T05:43:28;10.10;99.90
8563;DHT22;16392;52.508;13.468;2023-04-01T05:45:55;10.10;99.90
8563;DHT22;16392;52.508;13.468;2023-04-01T05:48:23;10.10;99.90
8563;DHT22;16392;52.508;13.468;2023-04-01T05:50:49;10.10;99.90
8563;DHT22;16392;52.508;13.468;2023-04-01T05:53:17;10.10;99.90
8563;DHT22;16392;52.508;13.468;2023-04-01T05:55:44;10.10;99.90
8563;DHT22;16392;52.508;13.468;2023-04-01T05:58:10;10.20;99.90
8563;DHT22;16392;52.508;13.468;2023-04-01T06:00:37;10.20;99.90
8563;DHT22;16392;52.508;13.468;2023-04-01T06:03:03;10.20;99.90
8563;DHT22;16392;52.508;13.468;2023-04-01T06:05:30;10.20;99.90
8563;DHT22;16392;52.508;13.468;2023-04-01T06:08:05;10.30;99.90
8563;DHT22;16392;52.508;13.468;2023-04-01T06:10:36;10.30;99.90
8563;DHT22;16392;52.508;13.468;2023-04-01T06:13:09;10.30;99.90
8563;DHT22;16392;52.508;13.468;2023-04-01T06:15:39;10.30;99.90
8563;DHT22;16392;52.508;13.468;2023-04-01T06:18:25;10.30;99.90
8563;DHT22;16392;52.508;13.468;2023-04-01T06:20:59;10.30;99.90
8563;DHT22;16392;52.508;13.468;2023-04-01T06:23:31;10.30;99.90
8563;DHT22;16392;52.508;13.468;2023-04-01T06:26:03;10.30;99.90
8563;DHT22;16392;52.508;13.468;2023-04-01T06:28:46;10.40;99.90
8563;DHT22;16392;52.508;13.468;2023-04-01T06:31:17;10.40;99.90
8563;DHT22;16392;52.508;13.468;2023-04-01T06:33:49;10.30;99.90
8563;DHT22;16392;52.508;13.468;2023-04-01T06:36:25;10.30;99.90
8563;DHT22;16392;52.508;13.468;2023-04-01T06:39:03;10.30;99.90
8563;DHT22;16392;52.508;13.468;2023-04-01T06:41:44;10.30;99.90
8563;DHT22;16392;52.508;13.468;2023-04-01T06:44:16;10.30;99.90
8563;DHT22;16392;52.508;13.468;2023-04-01T06:46:45;10.30;99.90
8563;DHT22;16392;52.508;13.468;2023-04-01T06:51:58;10.40;99.90
8563;DHT22;16392;52.508;13.468;2023-04-01T06:54:28;10.40;99.90
8563;DHT22;16392;52.508;13.468;2023-04-01T06:56:59;10.40;99.90
8563;DHT22;16392;52.508;13.468;2023-04-01T06:59:27;10.50;99.90
8563;DHT22;16392;52.508;13.468;2023-04-01T07:01:55;10.60;99.90
8563;DHT22;16392;52.508;13.468;2023-04-01T07:04:23;10.60;99.90
8563;DHT22;16392;52.508;13.468;2023-04-01T07:06:52;10.50;99.90
8563;DHT22;16392;52.508;13.468;2023-04-01T07:09:20;10.60;99.90
8563;DHT22;16392;52.508;13.468;2023-04-01T07:11:48;10.60;99.90
8563;DHT22;16392;52.508;13.468;2023-04-01T07:14:19;10.60;99.90
8563;DHT22;16392;52.508;13.468;2023-04-01T07:16:47;10.70;99.90
8563;DHT22;16392;52.508;13.468;2023-04-01T07:19:16;10.70;99.90
8563;DHT22;16392;52.508;13.468;2023-04-01T07:21:45;10.80;99.90
8563;DHT22;16392;52.508;13.468;2023-04-01T07:24:14;10.70;99.90
8563;DHT22;16392;52.508;13.468;2023-04-01T07:26:42;10.70;99.90
8563;DHT22;16392;52.508;13.468;2023-04-01T07:29:09;10.80;99.90
8563;DHT22;16392;52.508;13.468;2023-04-01T07:31:42;10.70;99.90
8563;DHT22;16392;52.508;13.468;2023-04-01T07:34:12;10.60;99.90
8563;DHT22;16392;52.508;13.468;2023-04-01T07:36:42;10.60;99.90
8563;DHT22;16392;52.508;13.468;2023-04-01T07:39:14;10.70;99.90
8563;DHT22;16392;52.508;13.468;2023-04-01T07:41:46;10.80;99.90
8563;DHT22;16392;52.508;13.468;2023-04-01T07:44:16;10.90;99.90
8563;DHT22;16392;52.508;13.468;2023-04-01T07:46:52;11.00;99.90
8563;DHT22;16392;52.508;13.468;2023-04-01T07:49:21;11.10;99.90
8563;DHT22;16392;52.508;13.468;2023-04-01T07:51:50;11.10;99.90
8563;DHT22;16392;52.508;13.468;2023-04-01T07:54:22;11.10;99.90
8563;DHT22;16392;52.508;13.468;2023-04-01T07:56:51;11.10;99.90
8563;DHT22;16392;52.508;13.468;2023-04-01T07:59:22;11.10;99.90
8563;DHT22;16392;52.508;13.468;2023-04-01T08:01:57;11.10;99.90
8563;DHT22;16392;52.508;13.468;2023-04-01T08:04:34;11.10;99.90
8563;DHT22;16392;52.508;13.468;2023-04-01T08:07:07;11.00;99.90
8563;DHT22;16392;52.508;13.468;2023-04-01T08:09:37;11.00;99.90
8563;DHT22;16392;52.508;13.468;2023-04-01T08:12:09;10.90;99.90
8563;DHT22;16392;52.508;13.468;2023-04-01T08:14:41;10.80;99.90
8563;DHT22;16392;52.508;13.468;2023-04-01T08:17:14;10.70;99.90
8563;DHT22;16392;52.508;13.468;2023-04-01T08:19:47;10.60;99.90
8563;DHT22;16392;52.508;13.468;2023-04-01T08:22:19;10.30;99.90
8563;DHT22;16392;52.508;13.468;2023-04-01T08:24:51;9.90;99.90
8563;DHT22;16392;52.508;13.468;2023-04-01T08:27:26;9.90;99.90
8563;DHT22;16392;52.508;13.468;2023-04-01T08:29:56;9.70;99.90
8563;DHT22;16392;52.508;13.468;2023-04-01T08:32:28;9.80;99.90
8563;DHT22;16392;52.508;13.468;2023-04-01T08:35:02;9.70;99.90
8563;DHT22;16392;52.508;13.468;2023-04-01T08:37:33;9.70;99.90
8563;DHT22;16392;52.508;13.468;2023-04-01T08:40:02;9.70;99.90
8563;DHT22;16392;52.508;13.468;2023-04-01T08:42:40;9.70;99.90
8563;DHT22;16392;52.508;13.468;2023-04-01T08:45:21;9.70;99.90
8563;DHT22;16392;52.508;13.468;2023-04-01T08:47:56;9.70;99.90
8563;DHT22;16392;52.508;13.468;2023-04-01T08:50:36;9.80;99.90
8563;DHT22;16392;52.508;13.468;2023-04-01T08:53:09;9.70;99.90
8563;DHT22;16392;52.508;13.468;2023-04-01T08:58:27;9.60;99.90
8563;DHT22;16392;52.508;13.468;2023-04-01T09:00:57;9.70;99.90
8563;DHT22;16392;52.508;13.468;2023-04-01T09:03:46;9.80;99.90
8563;DHT22;16392;52.508;13.468;2023-04-01T09:06:21;9.70;99.90
8563;DHT22;16392;52.508;13.468;2023-04-01T09:08:52;9.80;99.90
8563;DHT22;16392;52.508;13.468;2023-04-01T09:11:31;9.80;99.90
8563;DHT22;16392;52.508;13.468;2023-04-01T09:14:04;9.70;99.90
8563;DHT22;16392;52.508;13.468;2023-04-01T09:16:58;9.70;99.90
8563;DHT22;16392;52.508;13.468;2023-04-01T09:19:30;9.80;99.90
8563;DHT22;16392;52.508;13.468;2023-04-01T09:22:09;9.80;99.90
8563;DHT22;16392;52.508;13.468;2023-04-01T09:27:26;9.90;99.90
8563;DHT22;16392;52.508;13.468;2023-04-01T09:32:42;9.60;99.90
8563;DHT22;16392;52.508;13.468;2023-04-01T09:35:20;9.60;99.90
8563;DHT22;16392;52.508;13.468;2023-04-01T09:37:52;9.80;99.90
8563;DHT22;16392;52.508;13.468;2023-04-01T09:40:21;9.70;99.90
8563;DHT22;16392;52.508;13.468;2023-04-01T09:43:05;9.60;99.90
8563;DHT22;16392;52.508;13.468;2023-04-01T09:45:44;9.60;99.90
8563;DHT22;16392;52.508;13.468;2023-04-01T09:48:21;9.50;99.90
8563;DHT22;16392;52.508;13.468;2023-04-01T09:50:57;9.60;99.90
8563;DHT22;16392;52.508;13.468;2023-04-01T09:53:35;9.70;99.90
8563;DHT22;16392;52.508;13.468;2023-04-01T09:56:15;9.60;99.90
8563;DHT22;16392;52.508;13.468;2023-04-01T09:58:57;9.60;99.90
8563;DHT22;16392;52.508;13.468;2023-04-01T10:04:17;9.50;99.90
8563;DHT22;16392;52.508;13.468;2023-04-01T10:07:11;9.50;99.90
8563;DHT22;16392;52.508;13.468;2023-04-01T10:15:22;9.50;99.90
8563;DHT22;16392;52.508;13.468;2023-04-01T10:20:44;9.50;99.90
8563;DHT22;16392;52.508;13.468;2023-04-01T10:23:19;9.40;99.90
8563;DHT22;16392;52.508;13.468;2023-04-01T10:25:56;9.30;99.90
8563;DHT22;16392;52.508;13.468;2023-04-01T10:28:28;9.30;99.90
8563;DHT22;16392;52.508;13.468;2023-04-01T10:31:03;9.40;99.90
8563;DHT22;16392;52.508;13.468;2023-04-01T10:33:38;9.30;99.90
8563;DHT22;16392;52.508;13.468;2023-04-01T10:39:08;9.30;99.90
8563;DHT22;16392;52.508;13.468;2023-04-01T10:41:54;9.40;99.90
8563;DHT22;16392;52.508;13.468;2023-04-01T10:44:32;9.40;99.90
8563;DHT22;16392;52.508;13.468;2023-04-01T10:47:16;9.40;99.90
8563;DHT22;16392;52.508;13.468;2023-04-01T10:49:58;9.20;99.90
8563;DHT22;16392;52.508;13.468;2023-04-01T10:55:36;9.40;99.90
8563;DHT22;16392;52.508;13.468;2023-04-01T11:00:57;9.30;99.90
8563;DHT22;16392;52.508;13.468;2023-04-01T11:06:26;9.40;99.90
8563;DHT22;16392;52.508;13.468;2023-04-01T11:09:02;9.30;99.90
8563;DHT22;16392;52.508;13.468;2023-04-01T11:11:48;9.30;99.90
8563;DHT22;16392;52.508;13.468;2023-04-01T11:20:01;9.20;99.90
8563;DHT22;16392;52.508;13.468;2023-04-01T11:22:43;9.10;99.90
8563;DHT22;16392;52.508;13.468;2023-04-01T11:30:52;9.20;99.90
8563;DHT22;16392;52.508;13.468;2023-04-01T11:33:22;9.20;99.90
8563;DHT22;16392;52.508;13.468;2023-04-01T11:35:54;9.10;99.90
8563;DHT22;16392;52.508;13.468;2023-04-01T11:38:37;9.10;99.90
8563;DHT22;16392;52.508;13.468;2023-04-01T11:41:10;9.10;99.90
8563;DHT22;16392;52.508;13.468;2023-04-01T11:43:40;9.10;99.90
8563;DHT22;16392;52.508;13.468;2023-04-01T11:46:11;9.10;99.90
8563;DHT22;16392;52.508;13.468;2023-04-01T11:48:43;9.10;99.90
8563;DHT22;16392;52.508;13.468;2023-04-01T11:54:05;9.10;99.90
8563;DHT22;16392;52.508;13.468;2023-04-01T11:56:42;9.00;99.90
8563;DHT22;16392;52.508;13.468;2023-04-01T11:59:27;9.00;99.90
8563;DHT22;16392;52.508;13.468;2023-04-01T12:02:00;9.00;99.90
8563;DHT22;16392;52.508;13.468;2023-04-01T12:07:21;8.90;99.90
8563;DHT22;16392;52.508;13.468;2023-04-01T12:09:52;8.80;99.90
8563;DHT22;16392;52.508;13.468;2023-04-01T12:12:25;8.80;99.90
8563;DHT22;16392;52.508;13.468;2023-04-01T12:14:55;8.80;99.90
8563;DHT22;16392;52.508;13.468;2023-04-01T12:17:27;8.80;99.90
8563;DHT22;16392;52.508;13.468;2023-04-01T12:19:56;8.90;99.90
8563;DHT22;16392;52.508;13.468;2023-04-01T12:22:32;8.70;99.90
8563;DHT22;16392;52.508;13.468;2023-04-01T12:25:04;8.80;99.90
8563;DHT22;16392;52.508;13.468;2023-04-01T12:27:41;8.80;99.90
8563;DHT22;16392;52.508;13.468;2023-04-01T12:32:55;8.60;99.90
8563;DHT22;16392;52.508;13.468;2023-04-01T12:35:24;8.70;99.90
8563;DHT22;16392;52.508;13.468;2023-04-01T12:37:59;8.80;99.90
8563;DHT22;16392;52.508;13.468;2023-04-01T12:40:31;8.80;99.90
8563;DHT22;16392;52.508;13.468;2023-04-01T12:43:07;8.90;99.90
8563;DHT22;16392;52.508;13.468;2023-04-01T12:45:38;8.80;99.90
8563;DHT22;16392;52.508;13.468;2023-04-01T12:48:17;8.80;99.90
8563;DHT22;16392;52.508;13.468;2023-04-01T12:50:51;8.80;99.90
8563;DHT22;16392;52.508;13.468;2023-04-01T12:53:32;8.70;99.90
8563;DHT22;16392;52.508;13.468;2023-04-01T12:56:02;8.60;99.90
8563;DHT22;16392;52.508;13.468;2023-04-01T12:58:34;8.70;99.90
8563;DHT22;16392;52.508;13.468;2023-04-01T13:01:07;8.70;99.90
8563;DHT22;16392;52.508;13.468;2023-04-01T13:03:42;8.70;99.90
8563;DHT22;16392;52.508;13.468;2023-04-01T13:06:20;8.70;99.90
8563;DHT22;16392;52.508;13.468;2023-04-01T13:08:52;8.60;99.90
8563;DHT22;16392;52.508;13.468;2023-04-01T13:11:21;8.60;99.90
8563;DHT22;16392;52.508;13.468;2023-04-01T13:16:33;8.60;99.90
8563;DHT22;16392;52.508;13.468;2023-04-01T13:19:03;8.50;99.90
8563;DHT22;16392;52.508;13.468;2023-04-01T13:21:34;8.40;99.90
8563;DHT22;16392;52.508;13.468;2023-04-01T13:24:04;8.40;99.90
8563;DHT22;16392;52.508;13.468;2023-04-01T13:26:34;8.40;99.90
8563;DHT22;16392;52.508;13.468;2023-04-01T13:29:04;8.40;99.90
8563;DHT22;16392;52.508;13.468;2023-04-01T13:31:35;8.60;99.90
8563;DHT22;16392;52.508;13.468;2023-04-01T13:34:08;8.50;99.90
8563;DHT22;16392;52.508;13.468;2023-04-01T13:36:41;8.50;99.90
8563;DHT22;16392;52.508;13.468;2023-04-01T13:39:14;8.40;99.90
8563;DHT22;16392;52.508;13.468;2023-04-01T13:41:47;8.30;99.90
8563;DHT22;16392;52.508;13.468;2023-04-01T13:44:17;8.30;99.90
8563;DHT22;16392;52.508;13.468;2023-04-01T13:46:55;8.30;99.90
8563;DHT22;16392;52.508;13.468;2023-04-01T13:49:33;8.20;99.90
8563;DHT22;16392;52.508;13.468;2023-04-01T13:52:23;8.20;99.90
8563;DHT22;16392;52.508;13.468;2023-04-01T13:57:43;8.20;99.90
8563;DHT22;16392;52.508;13.468;2023-04-01T14:00:27;8.30;99.90
8563;DHT22;16392;52.508;13.468;2023-04-01T14:05:55;8.10;99.90
8563;DHT22;16392;52.508;13.468;2023-04-01T14:08:30;8.10;99.90
8563;DHT22;16392;52.508;13.468;2023-04-01T14:11:06;8.10;99.90
8563;DHT22;16392;52.508;13.468;2023-04-01T14:13:37;8.00;99.90
8563;DHT22;16392;52.508;13.468;2023-04-01T14:16:14;8.00;99.90
8563;DHT22;16392;52.508;13.468;2023-04-01T14:18:52;8.00;99.90
8563;DHT22;16392;52.508;13.468;2023-04-01T14:21:28;8.00;99.90
8563;DHT22;16392;52.508;13.468;2023-04-01T14:29:35;7.90;99.90
8563;DHT22;16392;52.508;13.468;2023-04-01T14:32:06;7.90;99.90
8563;DHT22;16392;52.508;13.468;2023-04-01T14:34:42;7.90;99.90
8563;DHT22;16392;52.508;13.468;2023-04-01T14:37:25;7.90;99.90
8563;DHT22;16392;52.508;13.468;2023-04-01T14:40:05;7.80;99.90
8563;DHT22;16392;52.508;13.468;2023-04-01T14:42:59;7.80;99.90
8563;DHT22;16392;52.508;13.468;2023-04-01T14:45:36;7.80;99.90
8563;DHT22;16392;52.508;13.468;2023-04-01T14:48:07;7.90;99.90
8563;DHT22;16392;52.508;13.468;2023-04-01T14:50:41;7.90;99.90
8563;DHT22;16392;52.508;13.468;2023-04-01T14:53:13;7.80;99.90
8563;DHT22;16392;52.508;13.468;2023-04-01T14:55:47;7.70;99.90
8563;DHT22;16392;52.508;13.468;2023-04-01T14:58:15;7.70;99.90
8563;DHT22;16392;52.508;13.468;2023-04-01T15:00:47;7.80;99.90
8563;DHT22;16392;52.508;13.468;2023-04-01T15:03:15;7.80;99.90
8563;DHT22;16392;52.508;13.468;2023-04-01T15:05:46;7.80;99.90
8563;DHT22;16392;52.508;13.468;2023-04-01T15:08:16;7.80;99.90
8563;DHT22;16392;52.508;13.468;2023-04-01T15:10:58;7.80;99.90
8563;DHT22;16392;52.508;13.468;2023-04-01T15:13:40;7.80;99.90
8563;DHT22;16392;52.508;13.468;2023-04-01T15:16:13;7.90;99.90
8563;DHT22;16392;52.508;13.468;2023-04-01T15:18:46;7.80;99.90
8563;DHT22;16392;52.508;13.468;2023-04-01T15:21:19;7.80;99.90
8563;DHT22;16392;52.508;13.468;2023-04-01T15:23:53;7.60;99.90
8563;DHT22;16392;52.508;13.468;2023-04-01T15:26:26;7.60;99.90
8563;DHT22;16392;52.508;13.468;2023-04-01T15:28:58;7.50;99.90
8563;DHT22;16392;52.508;13.468;2023-04-01T15:31:27;7.40;99.90
8563;DHT22;16392;52.508;13.468;2023-04-01T15:34:07;7.40;99.90
8563;DHT22;16392;52.508;13.468;2023-04-01T15:36:37;7.40;99.90
8563;DHT22;16392;52.508;13.468;2023-04-01T15:39:12;7.30;99.90
8563;DHT22;16392;52.508;13.468;2023-04-01T15:41:42;7.30;99.90
8563;DHT22;16392;52.508;13.468;2023-04-01T15:46:52;7.40;99.90
8563;DHT22;16392;52.508;13.468;2023-04-01T15:49:20;7.30;99.90
8563;DHT22;16392;52.508;13.468;2023-04-01T15:51:55;7.30;99.90
8563;DHT22;16392;52.508;13.468;2023-04-01T15:54:32;7.20;99.90
8563;DHT22;16392;52.508;13.468;2023-04-01T15:57:11;7.20;99.90
8563;DHT22;16392;52.508;13.468;2023-04-01T15:59:58;7.20;99.90
8563;DHT22;16392;52.508;13.468;2023-04-01T16:02:30;7.20;99.90
8563;DHT22;16392;52.508;13.468;2023-04-01T16:04:58;7.20;99.90
8563;DHT22;16392;52.508;13.468;2023-04-01T16:10:29;7.20;99.90
8563;DHT22;16392;52.508;13.468;2023-04-01T16:13:03;7.10;99.90
8563;DHT22;16392;52.508;13.468;2023-04-01T16:15:33;7.00;99.90
8563;DHT22;16392;52.508;13.468;2023-04-01T16:18:09;6.90;99.90
8563;DHT22;16392;52.508;13.468;2023-04-01T16:20:43;6.90;99.90
8563;DHT22;16392;52.508;13.468;2023-04-01T16:23:13;6.90;99.90
8563;DHT22;16392;52.508;13.468;2023-04-01T16:25:46;6.90;99.90
8563;DHT22;16392;52.508;13.468;2023-04-01T16:28:17;6.80;99.90
8563;DHT22;16392;52.508;13.468;2023-04-01T16:30:46;6.80;99.90
8563;DHT22;16392;52.508;13.468;2023-04-01T16:33:15;6.70;99.90
8563;DHT22;16392;52.508;13.468;2023-04-01T16:35:46;6.70;99.90
8563;DHT22;16392;52.508;13.468;2023-04-01T16:38:16;6.70;99.90
8563;DHT22;16392;52.508;13.468;2023-04-01T16:40:49;6.70;99.90
8563;DHT22;16392;52.508;13.468;2023-04-01T16:43:20;6.60;99.90
8563;DHT22;16392;52.508;13.468;2023-04-01T16:45:52;6.60;99.90
8563;DHT22;16392;52.508;13.468;2023-04-01T16:48:21;6.60;99.90
8563;DHT22;16392;52.508;13.468;2023-04-01T16:50:51;6.50;99.90
8563;DHT22;16392;52.508;13.468;2023-04-01T16:53:21;6.50;99.90
8563;DHT22;16392;52.508;13.468;2023-04-01T16:55:54;6.50;99.90
8563;DHT22;16392;52.508;13.468;2023-04-01T16:58:26;6.50;99.90
8563;DHT22;16392;52.508;13.468;2023-04-01T17:00:55;6.50;99.90
8563;DHT22;16392;52.508;13.468;2023-04-01T17:03:26;6.50;99.90
8563;DHT22;16392;52.508;13.468;2023-04-01T17:05:59;6.50;99.90
8563;DHT22;16392;52.508;13.468;2023-04-01T17:08:33;6.50;99.90
8563;DHT22;16392;52.508;13.468;2023-04-01T17:11:04;6.40;99.90
8563;DHT22;16392;52.508;13.468;2023-04-01T17:13:35;6.50;99.90
8563;DHT22;16392;52.508;13.468;2023-04-01T17:16:06;6.30;99.90
8563;DHT22;16392;52.508;13.468;2023-04-01T17:18:37;6.30;99.90
8563;DHT22;16392;52.508;13.468;2023-04-01T17:21:07;6.20;99.90
8563;DHT22;16392;52.508;13.468;2023-04-01T17:23:35;6.20;99.90